sensor_id;sensor_type;location;lat;lon;timestamp;P1;durP1;ratioP1;P2;durP2;ratioP2
3261;SDS011;1643;47.746;9.000;2022-10-18T00:02:16;5.23;;;3.80;;
3261;SDS011;1643;47.746;9.000;2022-10-18T00:04:43;4.83;;;3.73;;
3261;SDS011;1643;47.746;9.000;2022-10-18T00:07:10;5.03;;;3.90;;
3261;SDS011;1643;47.746;9.000;2022-10-18T00:09:36;3.67;;;3.38;;
3261;SDS011;1643;47.746;9.000;2022-10-18T00:12:01;5.10;;;3.67;;
3261;SDS011;1643;47.746;9.000;2022-10-18T00:14:28;4.30;;;3.60;;
3261;SDS011;1643;47.746;9.000;2022-10-18T00:16:53;4.57;;;3.35;;
3261;SDS011;1643;47.746;9.000;2022-10-18T00:19:19;7.47;;;3.50;;
3261;SDS011;1643;47.746;9.000;2022-10-18T00:21:44;3.50;;;3.20;;
3261;SDS011;1643;47.746;9.000;2022-10-18T00:24:10;8.15;;;3.70;;
3261;SDS011;1643;47.746;9.000;2022-10-18T00:26:36;5.00;;;3.73;;
3261;SDS011;1643;47.746;9.000;2022-10-18T00:29:03;6.28;;;4.40;;
3261;SDS011;1643;47.746;9.000;2022-10-18T00:31:31;7.10;;;5.20;;
3261;SDS011;1643;47.746;9.000;2022-10-18T00:34:01;6.93;;;5.60;;
3261;SDS011;1643;47.746;9.000;2022-10-18T00:36:29;4.50;;;4.10;;
3261;SDS011;1643;47.746;9.000;2022-10-18T00:38:56;5.40;;;3.50;;
3261;SDS011;1643;47.746;9.000;2022-10-18T00:41:23;3.60;;;3.30;;
3261;SDS011;1643;47.746;9.000;2022-10-18T00:46:35;4.50;;;3.10;;
3261;SDS011;1643;47.746;9.000;2022-10-18T00:49:13;5.70;;;3.40;;
3261;SDS011;1643;47.746;9.000;2022-10-18T00:51:46;4.88;;;3.40;;
3261;SDS011;1643;47.746;9.000;2022-10-18T00:54:20;4.60;;;4.20;;
3261;SDS011;1643;47.746;9.000;2022-10-18T00:56:46;5.80;;;4.30;;
3261;SDS011;1643;47.746;9.000;2022-10-18T00:59:15;13.87;;;5.70;;
3261;SDS011;1643;47.746;9.000;2022-10-18T01:01:42;12.98;;;6.50;;
3261;SDS011;1643;47.746;9.000;2022-10-18T01:04:08;8.15;;;5.90;;
3261;SDS011;1643;47.746;9.000;2022-10-18T01:06:40;6.03;;;5.10;;
3261;SDS011;1643;47.746;9.000;2022-10-18T01:09:42;6.20;;;4.40;;
3261;SDS011;1643;47.746;9.000;2022-10-18T01:14:51;3.63;;;3.20;;
3261;SDS011;1643;47.746;9.000;2022-10-18T01:30:42;5.32;;;3.60;;
3261;SDS011;1643;47.746;9.000;2022-10-18T01:33:34;6.45;;;3.80;;
3261;SDS011;1643;47.746;9.000;2022-10-18T01:38:32;5.60;;;4.40;;
3261;SDS011;1643;47.746;9.000;2022-10-18T01:41:01;6.55;;;4.88;;
3261;SDS011;1643;47.746;9.000;2022-10-18T01:43:28;5.10;;;4.40;;
3261;SDS011;1643;47.746;9.000;2022-10-18T01:45:56;4.80;;;4.40;;
3261;SDS011;1643;47.746;9.000;2022-10-18T01:48:24;7.13;;;4.88;;
3261;SDS011;1643;47.746;9.000;2022-10-18T01:50:50;8.48;;;4.53;;
3261;SDS011;1643;47.746;9.000;2022-10-18T01:53:27;6.63;;;4.50;;
3261;SDS011;1643;47.746;9.000;2022-10-18T01:56:37;7.95;;;5.15;;
3261;SDS011;1643;47.746;9.000;2022-10-18T02:01:19;6.93;;;4.90;;
3261;SDS011;1643;47.746;9.000;2022-10-18T02:04:28;6.88;;;4.95;;
3261;SDS011;1643;47.746;9.000;2022-10-18T02:07:21;5.78;;;4.60;;
3261;SDS011;1643;47.746;9.000;2022-10-18T02:09:44;6.07;;;5.47;;
3261;SDS011;1643;47.746;9.000;2022-10-18T02:12:15;9.30;;;6.20;;
3261;SDS011;1643;47.746;9.000;2022-10-18T02:14:43;7.25;;;5.70;;
3261;SDS011;1643;47.746;9.000;2022-10-18T02:17:10;7.10;;;6.40;;
3261;SDS011;1643;47.746;9.000;2022-10-18T02:19:47;7.50;;;6.30;;
3261;SDS011;1643;47.746;9.000;2022-10-18T02:22:17;8.07;;;6.30;;
3261;SDS011;1643;47.746;9.000;2022-10-18T02:24:48;7.73;;;6.10;;
3261;SDS011;1643;47.746;9.000;2022-10-18T02:27:17;7.38;;;5.95;;
3261;SDS011;1643;47.746;9.000;2022-10-18T02:29:43;6.93;;;5.63;;
3261;SDS011;1643;47.746;9.000;2022-10-18T02:32:16;7.80;;;5.90;;
3261;SDS011;1643;47.746;9.000;2022-10-18T02:35:00;6.13;;;5.53;;
3261;SDS011;1643;47.746;9.000;2022-10-18T02:37:36;7.00;;;5.65;;
3261;SDS011;1643;47.746;9.000;2022-10-18T02:40:04;7.53;;;5.93;;
3261;SDS011;1643;47.746;9.000;2022-10-18T02:42:38;6.55;;;5.72;;
3261;SDS011;1643;47.746;9.000;2022-10-18T02:45:08;8.10;;;6.30;;
3261;SDS011;1643;47.746;9.000;2022-10-18T02:47:36;6.97;;;6.07;;
3261;SDS011;1643;47.746;9.000;2022-10-18T02:50:01;8.67;;;6.70;;
3261;SDS011;1643;47.746;9.000;2022-10-18T02:52:27;9.68;;;7.10;;
3261;SDS011;1643;47.746;9.000;2022-10-18T02:54:53;9.40;;;5.60;;
3261;SDS011;1643;47.746;9.000;2022-10-18T02:57:18;8.63;;;5.73;;
3261;SDS011;1643;47.746;9.000;2022-10-18T02:59:44;7.57;;;5.90;;
3261;SDS011;1643;47.746;9.000;2022-10-18T03:02:09;6.20;;;5.17;;
3261;SDS011;1643;47.746;9.000;2022-10-18T03:04:35;6.80;;;4.63;;
3261;SDS011;1643;47.746;9.000;2022-10-18T03:07:00;5.50;;;5.00;;
3261;SDS011;1643;47.746;9.000;2022-10-18T03:09:26;5.60;;;4.90;;
3261;SDS011;1643;47.746;9.000;2022-10-18T03:11:52;6.33;;;5.17;;
3261;SDS011;1643;47.746;9.000;2022-10-18T03:14:17;6.47;;;5.17;;
3261;SDS011;1643;47.746;9.000;2022-10-18T03:16:43;5.77;;;5.07;;
3261;SDS011;1643;47.746;9.000;2022-10-18T03:19:08;6.27;;;5.17;;
3261;SDS011;1643;47.746;9.000;2022-10-18T03:21:34;6.27;;;5.67;;
3261;SDS011;1643;47.746;9.000;2022-10-18T03:24:00;5.83;;;4.80;;
3261;SDS011;1643;47.746;9.000;2022-10-18T03:26:26;6.00;;;5.37;;
3261;SDS011;1643;47.746;9.000;2022-10-18T03:28:53;5.53;;;4.63;;
3261;SDS011;1643;47.746;9.000;2022-10-18T03:31:18;6.90;;;5.43;;
3261;SDS011;1643;47.746;9.000;2022-10-18T03:33:44;5.70;;;5.10;;
3261;SDS011;1643;47.746;9.000;2022-10-18T03:36:10;5.90;;;5.30;;
3261;SDS011;1643;47.746;9.000;2022-10-18T03:38:36;6.90;;;4.60;;
3261;SDS011;1643;47.746;9.000;2022-10-18T03:41:01;7.60;;;5.93;;
3261;SDS011;1643;47.746;9.000;2022-10-18T03:43:27;17.43;;;5.40;;
3261;SDS011;1643;47.746;9.000;2022-10-18T03:45:53;5.07;;;4.57;;
3261;SDS011;1643;47.746;9.000;2022-10-18T03:48:18;8.03;;;5.50;;
3261;SDS011;1643;47.746;9.000;2022-10-18T03:50:44;5.93;;;5.33;;
3261;SDS011;1643;47.746;9.000;2022-10-18T03:53:09;7.40;;;5.63;;
3261;SDS011;1643;47.746;9.000;2022-10-18T03:55:35;6.90;;;5.27;;
3261;SDS011;1643;47.746;9.000;2022-10-18T03:58:01;5.20;;;4.63;;
3261;SDS011;1643;47.746;9.000;2022-10-18T04:00:27;4.80;;;4.13;;
3261;SDS011;1643;47.746;9.000;2022-10-18T04:02:53;4.40;;;4.00;;
3261;SDS011;1643;47.746;9.000;2022-10-18T04:05:19;4.70;;;4.30;;
3261;SDS011;1643;47.746;9.000;2022-10-18T04:07:45;5.07;;;4.63;;
3261;SDS011;1643;47.746;9.000;2022-10-18T04:10:10;6.10;;;4.73;;
3261;SDS011;1643;47.746;9.000;2022-10-18T04:12:36;5.10;;;4.37;;
3261;SDS011;1643;47.746;9.000;2022-10-18T04:15:02;5.47;;;4.90;;
3261;SDS011;1643;47.746;9.000;2022-10-18T04:17:27;5.60;;;5.00;;
3261;SDS011;1643;47.746;9.000;2022-10-18T04:19:53;4.73;;;4.33;;
3261;SDS011;1643;47.746;9.000;2022-10-18T04:22:19;5.60;;;4.40;;
3261;SDS011;1643;47.746;9.000;2022-10-18T04:24:44;4.53;;;4.13;;
3261;SDS011;1643;47.746;9.000;2022-10-18T04:27:10;5.23;;;4.70;;
3261;SDS011;1643;47.746;9.000;2022-10-18T04:29:35;4.30;;;3.90;;
3261;SDS011;1643;47.746;9.000;2022-10-18T04:32:01;5.10;;;4.70;;
3261;SDS011;1643;47.746;9.000;2022-10-18T04:34:27;8.00;;;6.03;;
3261;SDS011;1643;47.746;9.000;2022-10-18T04:36:52;5.77;;;5.10;;
3261;SDS011;1643;47.746;9.000;2022-10-18T04:39:18;6.30;;;4.73;;
3261;SDS011;1643;47.746;9.000;2022-10-18T04:41:44;5.70;;;4.53;;
3261;SDS011;1643;47.746;9.000;2022-10-18T04:44:09;5.07;;;4.60;;
3261;SDS011;1643;47.746;9.000;2022-10-18T04:46:35;5.50;;;5.00;;
3261;SDS011;1643;47.746;9.000;2022-10-18T04:49:01;4.40;;;4.00;;
3261;SDS011;1643;47.746;9.000;2022-10-18T04:51:27;4.83;;;4.37;;
3261;SDS011;1643;47.746;9.000;2022-10-18T04:53:53;5.97;;;4.70;;
3261;SDS011;1643;47.746;9.000;2022-10-18T04:56:19;5.20;;;4.70;;
3261;SDS011;1643;47.746;9.000;2022-10-18T04:58:44;4.63;;;4.13;;
3261;SDS011;1643;47.746;9.000;2022-10-18T05:01:10;7.00;;;4.50;;
3261;SDS011;1643;47.746;9.000;2022-10-18T05:03:36;5.70;;;5.07;;
3261;SDS011;1643;47.746;9.000;2022-10-18T05:06:02;4.87;;;4.40;;
3261;SDS011;1643;47.746;9.000;2022-10-18T05:08:28;4.87;;;4.37;;
3261;SDS011;1643;47.746;9.000;2022-10-18T05:10:54;5.47;;;4.47;;
3261;SDS011;1643;47.746;9.000;2022-10-18T05:13:19;4.40;;;4.00;;
3261;SDS011;1643;47.746;9.000;2022-10-18T05:15:45;7.47;;;4.20;;
3261;SDS011;1643;47.746;9.000;2022-10-18T05:18:11;5.00;;;4.60;;
3261;SDS011;1643;47.746;9.000;2022-10-18T05:20:37;5.70;;;4.90;;
3261;SDS011;1643;47.746;9.000;2022-10-18T05:23:02;6.40;;;4.77;;
3261;SDS011;1643;47.746;9.000;2022-10-18T05:25:28;5.80;;;5.20;;
3261;SDS011;1643;47.746;9.000;2022-10-18T05:27:53;5.23;;;4.83;;
3261;SDS011;1643;47.746;9.000;2022-10-18T05:30:19;5.50;;;5.00;;
3261;SDS011;1643;47.746;9.000;2022-10-18T05:32:45;5.00;;;4.50;;
3261;SDS011;1643;47.746;9.000;2022-10-18T05:35:11;4.87;;;4.47;;
3261;SDS011;1643;47.746;9.000;2022-10-18T05:37:37;4.43;;;4.03;;
3261;SDS011;1643;47.746;9.000;2022-10-18T05:40:02;4.23;;;3.83;;
3261;SDS011;1643;47.746;9.000;2022-10-18T05:42:28;4.60;;;4.17;;
3261;SDS011;1643;47.746;9.000;2022-10-18T05:44:54;6.63;;;4.47;;
3261;SDS011;1643;47.746;9.000;2022-10-18T05:47:19;4.07;;;3.77;;
3261;SDS011;1643;47.746;9.000;2022-10-18T05:49:45;4.30;;;3.90;;
3261;SDS011;1643;47.746;9.000;2022-10-18T05:52:11;4.10;;;3.80;;
3261;SDS011;1643;47.746;9.000;2022-10-18T05:54:37;4.43;;;4.03;;
3261;SDS011;1643;47.746;9.000;2022-10-18T05:57:03;5.03;;;4.53;;
3261;SDS011;1643;47.746;9.000;2022-10-18T05:59:28;6.60;;;4.73;;
3261;SDS011;1643;47.746;9.000;2022-10-18T06:01:54;5.20;;;4.40;;
3261;SDS011;1643;47.746;9.000;2022-10-18T06:04:19;4.43;;;4.03;;
3261;SDS011;1643;47.746;9.000;2022-10-18T06:06:45;4.50;;;4.10;;
3261;SDS011;1643;47.746;9.000;2022-10-18T06:09:11;5.20;;;4.47;;
3261;SDS011;1643;47.746;9.000;2022-10-18T06:11:36;5.17;;;4.70;;
3261;SDS011;1643;47.746;9.000;2022-10-18T06:14:02;4.87;;;4.40;;
3261;SDS011;1643;47.746;9.000;2022-10-18T06:16:29;7.43;;;4.90;;
3261;SDS011;1643;47.746;9.000;2022-10-18T06:18:55;6.20;;;4.70;;
3261;SDS011;1643;47.746;9.000;2022-10-18T06:21:22;5.27;;;4.77;;
3261;SDS011;1643;47.746;9.000;2022-10-18T06:23:49;6.27;;;5.33;;
3261;SDS011;1643;47.746;9.000;2022-10-18T06:26:15;7.00;;;5.40;;
3261;SDS011;1643;47.746;9.000;2022-10-18T06:28:41;7.33;;;5.80;;
3261;SDS011;1643;47.746;9.000;2022-10-18T06:31:06;6.40;;;5.80;;
3261;SDS011;1643;47.746;9.000;2022-10-18T06:33:33;8.75;;;6.60;;
3261;SDS011;1643;47.746;9.000;2022-10-18T06:36:00;8.13;;;7.00;;
3261;SDS011;1643;47.746;9.000;2022-10-18T06:38:28;7.53;;;6.82;;
3261;SDS011;1643;47.746;9.000;2022-10-18T06:40:55;7.70;;;6.72;;
3261;SDS011;1643;47.746;9.000;2022-10-18T06:43:21;9.00;;;7.33;;
3261;SDS011;1643;47.746;9.000;2022-10-18T06:45:48;7.80;;;7.00;;
3261;SDS011;1643;47.746;9.000;2022-10-18T06:48:14;8.27;;;6.60;;
3261;SDS011;1643;47.746;9.000;2022-10-18T06:50:40;7.53;;;6.72;;
3261;SDS011;1643;47.746;9.000;2022-10-18T06:53:06;9.00;;;6.80;;
3261;SDS011;1643;47.746;9.000;2022-10-18T06:55:33;8.73;;;5.93;;
3261;SDS011;1643;47.746;9.000;2022-10-18T06:57:59;9.50;;;7.80;;
3261;SDS011;1643;47.746;9.000;2022-10-18T07:00:25;9.10;;;7.50;;
3261;SDS011;1643;47.746;9.000;2022-10-18T07:02:51;10.02;;;7.88;;
3261;SDS011;1643;47.746;9.000;2022-10-18T07:05:16;9.60;;;8.50;;
3261;SDS011;1643;47.746;9.000;2022-10-18T07:07:42;9.35;;;8.40;;
3261;SDS011;1643;47.746;9.000;2022-10-18T07:10:08;9.37;;;8.00;;
3261;SDS011;1643;47.746;9.000;2022-10-18T07:12:34;9.63;;;8.63;;
3261;SDS011;1643;47.746;9.000;2022-10-18T07:14:59;9.43;;;8.53;;
3261;SDS011;1643;47.746;9.000;2022-10-18T07:17:25;9.13;;;8.00;;
3261;SDS011;1643;47.746;9.000;2022-10-18T07:19:51;10.40;;;7.55;;
3261;SDS011;1643;47.746;9.000;2022-10-18T07:22:17;9.18;;;8.10;;
3261;SDS011;1643;47.746;9.000;2022-10-18T07:24:42;13.13;;;8.40;;
3261;SDS011;1643;47.746;9.000;2022-10-18T07:27:08;8.90;;;7.75;;
3261;SDS011;1643;47.746;9.000;2022-10-18T07:29:34;11.00;;;8.10;;
3261;SDS011;1643;47.746;9.000;2022-10-18T07:32:02;8.40;;;7.60;;
3261;SDS011;1643;47.746;9.000;2022-10-18T07:34:28;7.40;;;6.70;;
3261;SDS011;1643;47.746;9.000;2022-10-18T07:36:54;8.30;;;7.50;;
3261;SDS011;1643;47.746;9.000;2022-10-18T07:39:20;8.60;;;7.70;;
3261;SDS011;1643;47.746;9.000;2022-10-18T07:41:46;10.90;;;9.80;;
3261;SDS011;1643;47.746;9.000;2022-10-18T07:44:11;9.20;;;8.07;;
3261;SDS011;1643;47.746;9.000;2022-10-18T07:46:37;7.50;;;6.80;;
3261;SDS011;1643;47.746;9.000;2022-10-18T07:49:03;7.35;;;6.65;;
3261;SDS011;1643;47.746;9.000;2022-10-18T07:51:29;7.50;;;6.80;;
3261;SDS011;1643;47.746;9.000;2022-10-18T07:53:57;8.80;;;6.90;;
3261;SDS011;1643;47.746;9.000;2022-10-18T07:56:23;26.90;;;17.48;;
3261;SDS011;1643;47.746;9.000;2022-10-18T07:58:50;64.80;;;42.03;;
3261;SDS011;1643;47.746;9.000;2022-10-18T08:01:18;81.10;;;51.72;;
3261;SDS011;1643;47.746;9.000;2022-10-18T08:03:45;25.92;;;17.88;;
3261;SDS011;1643;47.746;9.000;2022-10-18T08:06:11;14.10;;;10.93;;
3261;SDS011;1643;47.746;9.000;2022-10-18T08:08:39;10.73;;;9.63;;
3261;SDS011;1643;47.746;9.000;2022-10-18T08:11:15;14.32;;;12.27;;
3261;SDS011;1643;47.746;9.000;2022-10-18T08:13:42;14.45;;;12.00;;
3261;SDS011;1643;47.746;9.000;2022-10-18T08:16:09;10.20;;;9.20;;
3261;SDS011;1643;47.746;9.000;2022-10-18T08:18:37;9.25;;;8.35;;
3261;SDS011;1643;47.746;9.000;2022-10-18T08:21:03;11.43;;;8.02;;
3261;SDS011;1643;47.746;9.000;2022-10-18T08:23:31;10.00;;;8.95;;
3261;SDS011;1643;47.746;9.000;2022-10-18T08:26:01;9.10;;;8.30;;
3261;SDS011;1643;47.746;9.000;2022-10-18T08:28:28;9.40;;;8.50;;
3261;SDS011;1643;47.746;9.000;2022-10-18T08:30:53;9.70;;;8.80;;
3261;SDS011;1643;47.746;9.000;2022-10-18T08:33:19;10.10;;;9.00;;
3261;SDS011;1643;47.746;9.000;2022-10-18T08:35:53;9.97;;;8.90;;
3261;SDS011;1643;47.746;9.000;2022-10-18T08:38:22;11.27;;;9.43;;
3261;SDS011;1643;47.746;9.000;2022-10-18T08:40:48;12.18;;;9.82;;
3261;SDS011;1643;47.746;9.000;2022-10-18T08:43:35;10.70;;;8.85;;
3261;SDS011;1643;47.746;9.000;2022-10-18T08:46:11;9.50;;;8.60;;
3261;SDS011;1643;47.746;9.000;2022-10-18T08:48:39;9.85;;;8.90;;
3261;SDS011;1643;47.746;9.000;2022-10-18T08:51:32;10.23;;;9.23;;
3261;SDS011;1643;47.746;9.000;2022-10-18T08:54:03;11.55;;;8.52;;
3261;SDS011;1643;47.746;9.000;2022-10-18T08:56:34;8.63;;;7.70;;
3261;SDS011;1643;47.746;9.000;2022-10-18T08:59:00;8.93;;;7.90;;
3261;SDS011;1643;47.746;9.000;2022-10-18T09:15:40;9.50;;;8.57;;
3261;SDS011;1643;47.746;9.000;2022-10-18T09:21:19;9.90;;;8.90;;
3261;SDS011;1643;47.746;9.000;2022-10-18T09:26:42;9.80;;;8.90;;
3261;SDS011;1643;47.746;9.000;2022-10-18T09:37:22;9.10;;;8.20;;
3261;SDS011;1643;47.746;9.000;2022-10-18T09:39:49;8.40;;;7.60;;
3261;SDS011;1643;47.746;9.000;2022-10-18T09:42:25;8.95;;;8.05;;
3261;SDS011;1643;47.746;9.000;2022-10-18T09:45:06;8.40;;;7.60;;
3261;SDS011;1643;47.746;9.000;2022-10-18T09:47:43;9.75;;;8.35;;
3261;SDS011;1643;47.746;9.000;2022-10-18T09:58:37;9.20;;;8.30;;
3261;SDS011;1643;47.746;9.000;2022-10-18T10:01:09;8.60;;;7.70;;
3261;SDS011;1643;47.746;9.000;2022-10-18T10:03:38;8.70;;;7.90;;
3261;SDS011;1643;47.746;9.000;2022-10-18T10:08:38;7.40;;;6.70;;
3261;SDS011;1643;47.746;9.000;2022-10-18T10:13:50;7.17;;;6.57;;
3261;SDS011;1643;47.746;9.000;2022-10-18T10:16:16;7.57;;;6.82;;
3261;SDS011;1643;47.746;9.000;2022-10-18T10:18:42;6.50;;;5.90;;
3261;SDS011;1643;47.746;9.000;2022-10-18T10:21:12;6.97;;;6.28;;
3261;SDS011;1643;47.746;9.000;2022-10-18T10:23:45;7.00;;;6.30;;
3261;SDS011;1643;47.746;9.000;2022-10-18T10:26:23;6.40;;;5.80;;
3261;SDS011;1643;47.746;9.000;2022-10-18T10:28:56;6.75;;;6.05;;
3261;SDS011;1643;47.746;9.000;2022-10-18T10:33:58;6.40;;;5.55;;
3261;SDS011;1643;47.746;9.000;2022-10-18T10:36:24;5.72;;;5.22;;
3261;SDS011;1643;47.746;9.000;2022-10-18T10:41:54;5.93;;;5.43;;
3261;SDS011;1643;47.746;9.000;2022-10-18T10:44:22;6.75;;;6.15;;
3261;SDS011;1643;47.746;9.000;2022-10-18T10:46:49;6.20;;;5.60;;
3261;SDS011;1643;47.746;9.000;2022-10-18T10:49:20;6.55;;;5.75;;
3261;SDS011;1643;47.746;9.000;2022-10-18T10:52:03;7.10;;;6.40;;
3261;SDS011;1643;47.746;9.000;2022-10-18T10:54:30;6.00;;;5.50;;
3261;SDS011;1643;47.746;9.000;2022-10-18T10:57:01;6.63;;;6.03;;
3261;SDS011;1643;47.746;9.000;2022-10-18T10:59:30;6.28;;;5.68;;
3261;SDS011;1643;47.746;9.000;2022-10-18T11:02:29;7.00;;;6.30;;
3261;SDS011;1643;47.746;9.000;2022-10-18T11:04:54;6.20;;;5.45;;
3261;SDS011;1643;47.746;9.000;2022-10-18T11:07:34;7.43;;;6.00;;
3261;SDS011;1643;47.746;9.000;2022-10-18T11:23:19;5.68;;;5.18;;
3261;SDS011;1643;47.746;9.000;2022-10-18T11:26:37;5.43;;;4.93;;
3261;SDS011;1643;47.746;9.000;2022-10-18T11:51:08;5.05;;;4.45;;
3261;SDS011;1643;47.746;9.000;2022-10-18T11:53:43;5.70;;;4.32;;
3261;SDS011;1643;47.746;9.000;2022-10-18T12:01:52;5.05;;;4.15;;
3261;SDS011;1643;47.746;9.000;2022-10-18T12:04:25;4.53;;;3.60;;
3261;SDS011;1643;47.746;9.000;2022-10-18T12:06:57;4.72;;;3.65;;
3261;SDS011;1643;47.746;9.000;2022-10-18T12:09:30;4.30;;;3.60;;
3261;SDS011;1643;47.746;9.000;2022-10-18T12:19:47;5.50;;;3.90;;
3261;SDS011;1643;47.746;9.000;2022-10-18T12:24:48;4.00;;;3.60;;
3261;SDS011;1643;47.746;9.000;2022-10-18T12:27:14;3.70;;;3.30;;
3261;SDS011;1643;47.746;9.000;2022-10-18T12:32:19;5.45;;;3.40;;
3261;SDS011;1643;47.746;9.000;2022-10-18T12:34:51;5.27;;;3.40;;
3261;SDS011;1643;47.746;9.000;2022-10-18T12:42:20;4.40;;;3.00;;
3261;SDS011;1643;47.746;9.000;2022-10-18T12:44:49;5.10;;;3.60;;
3261;SDS011;1643;47.746;9.000;2022-10-18T12:47:48;4.03;;;3.17;;
3261;SDS011;1643;47.746;9.000;2022-10-18T12:53:04;6.10;;;3.50;;
3261;SDS011;1643;47.746;9.000;2022-10-18T12:55:35;4.22;;;3.00;;
3261;SDS011;1643;47.746;9.000;2022-10-18T12:58:03;4.10;;;3.00;;
3261;SDS011;1643;47.746;9.000;2022-10-18T13:08:31;6.70;;;3.25;;
3261;SDS011;1643;47.746;9.000;2022-10-18T13:24:33;4.47;;;2.80;;
3261;SDS011;1643;47.746;9.000;2022-10-18T13:27:13;3.30;;;3.00;;
3261;SDS011;1643;47.746;9.000;2022-10-18T13:30:10;4.75;;;3.20;;
3261;SDS011;1643;47.746;9.000;2022-10-18T13:41:17;3.53;;;2.80;;
3261;SDS011;1643;47.746;9.000;2022-10-18T13:46:21;3.72;;;3.17;;
3261;SDS011;1643;47.746;9.000;2022-10-18T13:48:49;4.22;;;3.00;;
3261;SDS011;1643;47.746;9.000;2022-10-18T13:53:47;4.43;;;2.92;;
3261;SDS011;1643;47.746;9.000;2022-10-18T14:04:37;4.35;;;3.10;;
3261;SDS011;1643;47.746;9.000;2022-10-18T14:07:11;3.53;;;2.70;;
3261;SDS011;1643;47.746;9.000;2022-10-18T14:09:47;5.32;;;3.28;;
3261;SDS011;1643;47.746;9.000;2022-10-18T14:20:27;5.50;;;2.70;;
3261;SDS011;1643;47.746;9.000;2022-10-18T14:23:14;3.65;;;2.70;;
3261;SDS011;1643;47.746;9.000;2022-10-18T14:26:07;6.10;;;2.92;;
3261;SDS011;1643;47.746;9.000;2022-10-18T14:28:38;4.60;;;2.63;;
3261;SDS011;1643;47.746;9.000;2022-10-18T14:31:05;3.83;;;2.60;;
3261;SDS011;1643;47.746;9.000;2022-10-18T14:33:44;5.72;;;2.80;;
3261;SDS011;1643;47.746;9.000;2022-10-18T14:43:52;3.60;;;3.00;;
3261;SDS011;1643;47.746;9.000;2022-10-18T14:46:40;3.17;;;2.60;;
3261;SDS011;1643;47.746;9.000;2022-10-18T14:49:10;3.53;;;2.60;;
3261;SDS011;1643;47.746;9.000;2022-10-18T14:51:37;5.40;;;2.70;;
3261;SDS011;1643;47.746;9.000;2022-10-18T14:54:05;4.13;;;2.80;;
3261;SDS011;1643;47.746;9.000;2022-10-18T14:56:35;5.60;;;3.00;;
3261;SDS011;1643;47.746;9.000;2022-10-18T14:59:03;3.80;;;2.60;;
3261;SDS011;1643;47.746;9.000;2022-10-18T15:01:35;6.05;;;3.00;;
3261;SDS011;1643;47.746;9.000;2022-10-18T15:04:04;4.20;;;2.65;;
3261;SDS011;1643;47.746;9.000;2022-10-18T15:06:33;4.90;;;2.70;;
3261;SDS011;1643;47.746;9.000;2022-10-18T15:09:00;5.32;;;2.70;;
3261;SDS011;1643;47.746;9.000;2022-10-18T15:11:31;5.32;;;2.70;;
3261;SDS011;1643;47.746;9.000;2022-10-18T15:14:02;5.20;;;2.67;;
3261;SDS011;1643;47.746;9.000;2022-10-18T15:16:33;4.60;;;2.80;;
3261;SDS011;1643;47.746;9.000;2022-10-18T15:19:51;4.60;;;2.50;;
3261;SDS011;1643;47.746;9.000;2022-10-18T15:22:00;4.53;;;2.50;;
3261;SDS011;1643;47.746;9.000;2022-10-18T15:24:37;3.50;;;2.60;;
3261;SDS011;1643;47.746;9.000;2022-10-18T15:29:35;5.00;;;3.20;;
3261;SDS011;1643;47.746;9.000;2022-10-18T15:32:18;5.03;;;2.58;;
3261;SDS011;1643;47.746;9.000;2022-10-18T15:34:46;4.65;;;2.72;;
3261;SDS011;1643;47.746;9.000;2022-10-18T15:39:50;3.30;;;2.67;;
3261;SDS011;1643;47.746;9.000;2022-10-18T15:42:50;4.80;;;2.50;;
3261;SDS011;1643;47.746;9.000;2022-10-18T15:48:13;4.25;;;3.00;;
3261;SDS011;1643;47.746;9.000;2022-10-18T15:58:21;4.40;;;2.50;;
3261;SDS011;1643;47.746;9.000;2022-10-18T16:01:04;3.78;;;2.60;;
3261;SDS011;1643;47.746;9.000;2022-10-18T16:03:31;8.00;;;2.60;;
3261;SDS011;1643;47.746;9.000;2022-10-18T16:06:05;4.67;;;2.70;;
3261;SDS011;1643;47.746;9.000;2022-10-18T16:08:34;2.60;;;2.40;;
3261;SDS011;1643;47.746;9.000;2022-10-18T16:11:05;5.60;;;2.75;;
3261;SDS011;1643;47.746;9.000;2022-10-18T16:13:41;4.97;;;2.70;;
3261;SDS011;1643;47.746;9.000;2022-10-18T16:16:12;6.78;;;3.17;;
3261;SDS011;1643;47.746;9.000;2022-10-18T16:18:40;4.53;;;2.50;;
3261;SDS011;1643;47.746;9.000;2022-10-18T16:21:11;4.50;;;2.83;;
3261;SDS011;1643;47.746;9.000;2022-10-18T16:23:50;3.35;;;2.90;;
3261;SDS011;1643;47.746;9.000;2022-10-18T16:26:16;7.60;;;3.40;;
3261;SDS011;1643;47.746;9.000;2022-10-18T16:28:43;5.25;;;3.80;;
3261;SDS011;1643;47.746;9.000;2022-10-18T16:31:10;5.70;;;4.50;;
3261;SDS011;1643;47.746;9.000;2022-10-18T16:33:40;8.75;;;5.80;;
3261;SDS011;1643;47.746;9.000;2022-10-18T16:36:06;7.78;;;5.78;;
3261;SDS011;1643;47.746;9.000;2022-10-18T16:38:35;7.37;;;4.60;;
3261;SDS011;1643;47.746;9.000;2022-10-18T16:41:02;7.47;;;4.40;;
3261;SDS011;1643;47.746;9.000;2022-10-18T16:43:29;7.50;;;4.40;;
3261;SDS011;1643;47.746;9.000;2022-10-18T16:45:55;6.35;;;4.10;;
3261;SDS011;1643;47.746;9.000;2022-10-18T16:48:22;8.33;;;4.20;;
3261;SDS011;1643;47.746;9.000;2022-10-18T16:50:50;9.73;;;4.93;;
3261;SDS011;1643;47.746;9.000;2022-10-18T16:53:16;9.00;;;4.90;;
3261;SDS011;1643;47.746;9.000;2022-10-18T16:55:47;10.13;;;5.03;;
3261;SDS011;1643;47.746;9.000;2022-10-18T16:58:17;6.47;;;4.07;;
3261;SDS011;1643;47.746;9.000;2022-10-18T17:00:43;8.95;;;3.83;;
3261;SDS011;1643;47.746;9.000;2022-10-18T17:03:11;6.45;;;4.10;;
3261;SDS011;1643;47.746;9.000;2022-10-18T17:05:37;4.78;;;3.50;;
3261;SDS011;1643;47.746;9.000;2022-10-18T17:08:03;8.93;;;4.20;;
3261;SDS011;1643;47.746;9.000;2022-10-18T17:10:29;5.88;;;3.60;;
3261;SDS011;1643;47.746;9.000;2022-10-18T17:12:55;4.63;;;3.30;;
3261;SDS011;1643;47.746;9.000;2022-10-18T17:15:20;4.30;;;3.47;;
3261;SDS011;1643;47.746;9.000;2022-10-18T17:17:46;8.10;;;3.72;;
3261;SDS011;1643;47.746;9.000;2022-10-18T17:20:25;4.88;;;3.13;;
3261;SDS011;1643;47.746;9.000;2022-10-18T17:22:51;5.80;;;3.20;;
3261;SDS011;1643;47.746;9.000;2022-10-18T17:25:18;6.18;;;3.45;;
3261;SDS011;1643;47.746;9.000;2022-10-18T17:27:44;6.20;;;3.60;;
3261;SDS011;1643;47.746;9.000;2022-10-18T17:30:11;4.47;;;2.78;;
3261;SDS011;1643;47.746;9.000;2022-10-18T17:32:38;7.45;;;3.50;;
3261;SDS011;1643;47.746;9.000;2022-10-18T17:35:04;5.82;;;3.40;;
3261;SDS011;1643;47.746;9.000;2022-10-18T17:37:30;4.75;;;3.30;;
3261;SDS011;1643;47.746;9.000;2022-10-18T17:39:55;4.80;;;3.30;;
3261;SDS011;1643;47.746;9.000;2022-10-18T17:42:21;6.70;;;3.65;;
3261;SDS011;1643;47.746;9.000;2022-10-18T17:44:47;6.50;;;3.40;;
3261;SDS011;1643;47.746;9.000;2022-10-18T17:47:12;9.33;;;3.60;;
3261;SDS011;1643;47.746;9.000;2022-10-18T17:49:38;10.02;;;3.70;;
3261;SDS011;1643;47.746;9.000;2022-10-18T17:52:04;8.40;;;3.97;;
3261;SDS011;1643;47.746;9.000;2022-10-18T17:54:29;5.03;;;3.90;;
3261;SDS011;1643;47.746;9.000;2022-10-18T17:56:55;5.47;;;3.97;;
3261;SDS011;1643;47.746;9.000;2022-10-18T17:59:21;5.43;;;4.40;;
3261;SDS011;1643;47.746;9.000;2022-10-18T18:01:47;6.57;;;3.90;;
3261;SDS011;1643;47.746;9.000;2022-10-18T18:04:12;9.82;;;4.35;;
3261;SDS011;1643;47.746;9.000;2022-10-18T18:06:38;5.47;;;4.10;;
3261;SDS011;1643;47.746;9.000;2022-10-18T18:09:06;4.20;;;3.78;;
3261;SDS011;1643;47.746;9.000;2022-10-18T18:11:39;7.20;;;5.65;;
3261;SDS011;1643;47.746;9.000;2022-10-18T18:14:07;7.10;;;4.60;;
3261;SDS011;1643;47.746;9.000;2022-10-18T18:16:35;8.18;;;4.10;;
3261;SDS011;1643;47.746;9.000;2022-10-18T18:19:02;9.93;;;3.40;;
3261;SDS011;1643;47.746;9.000;2022-10-18T18:21:28;5.00;;;3.60;;
3261;SDS011;1643;47.746;9.000;2022-10-18T18:23:54;7.05;;;3.67;;
3261;SDS011;1643;47.746;9.000;2022-10-18T18:26:19;6.73;;;3.73;;
3261;SDS011;1643;47.746;9.000;2022-10-18T18:28:46;7.28;;;3.60;;
3261;SDS011;1643;47.746;9.000;2022-10-18T18:31:22;9.20;;;3.90;;
3261;SDS011;1643;47.746;9.000;2022-10-18T18:33:49;6.70;;;3.80;;
3261;SDS011;1643;47.746;9.000;2022-10-18T18:36:15;5.85;;;3.70;;
3261;SDS011;1643;47.746;9.000;2022-10-18T18:38:41;5.30;;;3.60;;
3261;SDS011;1643;47.746;9.000;2022-10-18T18:41:15;5.68;;;3.80;;
3261;SDS011;1643;47.746;9.000;2022-10-18T18:43:48;4.68;;;3.40;;
3261;SDS011;1643;47.746;9.000;2022-10-18T18:46:17;5.78;;;3.33;;
3261;SDS011;1643;47.746;9.000;2022-10-18T18:48:43;6.63;;;3.72;;
3261;SDS011;1643;47.746;9.000;2022-10-18T18:51:10;9.37;;;3.80;;
3261;SDS011;1643;47.746;9.000;2022-10-18T18:53:38;7.00;;;4.28;;
3261;SDS011;1643;47.746;9.000;2022-10-18T18:56:05;7.65;;;3.80;;